sensor_id;sensor_type;location;lat;lon;timestamp;P1;durP1;ratioP1;P2;durP2;ratioP2
14052;SDS011;7101;51.600;7.310;2023-03-19T00:00:24;14.48;;;9.93;;
14052;SDS011;7101;51.600;7.310;2023-03-19T00:02:54;14.13;;;9.43;;
14052;SDS011;7101;51.600;7.310;2023-03-19T00:05:21;14.38;;;10.40;;
14052;SDS011;7101;51.600;7.310;2023-03-19T00:07:50;14.88;;;9.85;;
14052;SDS011;7101;51.600;7.310;2023-03-19T00:10:18;17.75;;;10.48;;
14052;SDS011;7101;51.600;7.310;2023-03-19T00:12:45;16.23;;;10.75;;
14052;SDS011;7101;51.600;7.310;2023-03-19T00:15:12;19.80;;;10.93;;
14052;SDS011;7101;51.600;7.310;2023-03-19T00:17:39;16.85;;;10.43;;
14052;SDS011;7101;51.600;7.310;2023-03-19T00:20:07;15.38;;;10.35;;
14052;SDS011;7101;51.600;7.310;2023-03-19T00:22:35;13.93;;;10.40;;
14052;SDS011;7101;51.600;7.310;2023-03-19T00:25:05;13.57;;;9.73;;
14052;SDS011;7101;51.600;7.310;2023-03-19T00:27:32;15.85;;;9.63;;
14052;SDS011;7101;51.600;7.310;2023-03-19T00:30:00;16.52;;;9.73;;
14052;SDS011;7101;51.600;7.310;2023-03-19T00:32:28;13.27;;;8.65;;
14052;SDS011;7101;51.600;7.310;2023-03-19T00:34:57;12.15;;;8.40;;
14052;SDS011;7101;51.600;7.310;2023-03-19T00:37:24;12.93;;;8.43;;
14052;SDS011;7101;51.600;7.310;2023-03-19T00:39:51;11.77;;;7.38;;
14052;SDS011;7101;51.600;7.310;2023-03-19T00:42:19;13.20;;;8.27;;
14052;SDS011;7101;51.600;7.310;2023-03-19T00:44:47;17.50;;;8.43;;
14052;SDS011;7101;51.600;7.310;2023-03-19T00:47:14;11.90;;;7.68;;
14052;SDS011;7101;51.600;7.310;2023-03-19T00:49:42;13.93;;;7.60;;
14052;SDS011;7101;51.600;7.310;2023-03-19T00:52:09;11.90;;;7.30;;
14052;SDS011;7101;51.600;7.310;2023-03-19T00:54:36;13.05;;;7.10;;
14052;SDS011;7101;51.600;7.310;2023-03-19T00:57:03;13.13;;;6.40;;
14052;SDS011;7101;51.600;7.310;2023-03-19T00:59:32;8.60;;;5.20;;
14052;SDS011;7101;51.600;7.310;2023-03-19T01:01:59;11.65;;;5.57;;
14052;SDS011;7101;51.600;7.310;2023-03-19T01:04:25;9.25;;;5.40;;
14052;SDS011;7101;51.600;7.310;2023-03-19T01:06:53;10.00;;;5.60;;
14052;SDS011;7101;51.600;7.310;2023-03-19T01:09:20;7.05;;;4.82;;
14052;SDS011;7101;51.600;7.310;2023-03-19T01:11:46;7.95;;;4.55;;
14052;SDS011;7101;51.600;7.310;2023-03-19T01:14:14;7.35;;;3.80;;
14052;SDS011;7101;51.600;7.310;2023-03-19T01:16:42;8.40;;;4.43;;
14052;SDS011;7101;51.600;7.310;2023-03-19T01:19:09;9.38;;;3.90;;
14052;SDS011;7101;51.600;7.310;2023-03-19T01:21:39;5.47;;;3.85;;
14052;SDS011;7101;51.600;7.310;2023-03-19T01:24:10;5.70;;;3.65;;
14052;SDS011;7101;51.600;7.310;2023-03-19T01:26:37;6.50;;;4.07;;
14052;SDS011;7101;51.600;7.310;2023-03-19T01:29:05;8.18;;;4.07;;
14052;SDS011;7101;51.600;7.310;2023-03-19T01:31:33;9.13;;;4.00;;
14052;SDS011;7101;51.600;7.310;2023-03-19T01:34:03;7.63;;;4.22;;
14052;SDS011;7101;51.600;7.310;2023-03-19T01:36:31;7.43;;;4.15;;
14052;SDS011;7101;51.600;7.310;2023-03-19T01:38:59;6.40;;;4.00;;
14052;SDS011;7101;51.600;7.310;2023-03-19T01:41:26;9.00;;;4.35;;
14052;SDS011;7101;51.600;7.310;2023-03-19T01:43:53;8.80;;;3.80;;
14052;SDS011;7101;51.600;7.310;2023-03-19T01:46:22;8.10;;;4.55;;
14052;SDS011;7101;51.600;7.310;2023-03-19T01:48:54;5.78;;;4.10;;
14052;SDS011;7101;51.600;7.310;2023-03-19T01:51:26;6.55;;;4.32;;
14052;SDS011;7101;51.600;7.310;2023-03-19T01:53:56;8.73;;;4.20;;
14052;SDS011;7101;51.600;7.310;2023-03-19T01:56:27;7.53;;;4.30;;
14052;SDS011;7101;51.600;7.310;2023-03-19T01:58:57;8.75;;;5.00;;
14052;SDS011;7101;51.600;7.310;2023-03-19T02:01:29;7.47;;;5.07;;
14052;SDS011;7101;51.600;7.310;2023-03-19T02:04:00;10.57;;;5.38;;
14052;SDS011;7101;51.600;7.310;2023-03-19T02:06:30;7.55;;;5.60;;
14052;SDS011;7101;51.600;7.310;2023-03-19T02:08:58;6.97;;;5.03;;
14052;SDS011;7101;51.600;7.310;2023-03-19T02:11:26;10.80;;;5.68;;
14052;SDS011;7101;51.600;7.310;2023-03-19T02:16:23;9.27;;;6.18;;
14052;SDS011;7101;51.600;7.310;2023-03-19T02:18:51;9.77;;;6.45;;
14052;SDS011;7101;51.600;7.310;2023-03-19T02:21:19;12.55;;;6.63;;
14052;SDS011;7101;51.600;7.310;2023-03-19T02:23:48;11.18;;;6.22;;
14052;SDS011;7101;51.600;7.310;2023-03-19T02:26:22;11.63;;;6.80;;
14052;SDS011;7101;51.600;7.310;2023-03-19T02:28:50;9.90;;;6.53;;
14052;SDS011;7101;51.600;7.310;2023-03-19T02:31:18;8.52;;;6.10;;
14052;SDS011;7101;51.600;7.310;2023-03-19T02:33:55;12.85;;;6.30;;
14052;SDS011;7101;51.600;7.310;2023-03-19T02:36:24;11.05;;;6.60;;
14052;SDS011;7101;51.600;7.310;2023-03-19T02:38:53;10.50;;;6.40;;
14052;SDS011;7101;51.600;7.310;2023-03-19T02:41:25;9.27;;;6.32;;
14052;SDS011;7101;51.600;7.310;2023-03-19T02:43:51;13.27;;;6.50;;
14052;SDS011;7101;51.600;7.310;2023-03-19T02:46:20;10.05;;;6.80;;
14052;SDS011;7101;51.600;7.310;2023-03-19T02:48:47;9.02;;;6.90;;
14052;SDS011;7101;51.600;7.310;2023-03-19T02:51:14;9.38;;;6.32;;
14052;SDS011;7101;51.600;7.310;2023-03-19T02:53:41;9.45;;;6.18;;
14052;SDS011;7101;51.600;7.310;2023-03-19T02:56:08;7.97;;;5.93;;
14052;SDS011;7101;51.600;7.310;2023-03-19T02:58:36;10.18;;;6.28;;
14052;SDS011;7101;51.600;7.310;2023-03-19T03:01:03;10.13;;;6.63;;
14052;SDS011;7101;51.600;7.310;2023-03-19T03:03:31;10.98;;;6.10;;
14052;SDS011;7101;51.600;7.310;2023-03-19T03:05:58;9.88;;;6.53;;
14052;SDS011;7101;51.600;7.310;2023-03-19T03:08:25;10.77;;;6.13;;
14052;SDS011;7101;51.600;7.310;2023-03-19T03:10:52;8.23;;;6.10;;
14052;SDS011;7101;51.600;7.310;2023-03-19T03:13:19;9.82;;;6.50;;
14052;SDS011;7101;51.600;7.310;2023-03-19T03:15:48;8.05;;;5.93;;
14052;SDS011;7101;51.600;7.310;2023-03-19T03:18:15;10.57;;;6.15;;
14052;SDS011;7101;51.600;7.310;2023-03-19T03:20:43;7.60;;;6.00;;
14052;SDS011;7101;51.600;7.310;2023-03-19T03:23:10;8.10;;;6.15;;
14052;SDS011;7101;51.600;7.310;2023-03-19T03:25:37;10.43;;;6.30;;
14052;SDS011;7101;51.600;7.310;2023-03-19T03:28:04;10.18;;;6.35;;
14052;SDS011;7101;51.600;7.310;2023-03-19T03:30:32;10.00;;;5.75;;
14052;SDS011;7101;51.600;7.310;2023-03-19T03:33:00;10.35;;;5.90;;
14052;SDS011;7101;51.600;7.310;2023-03-19T03:35:28;9.57;;;6.28;;
14052;SDS011;7101;51.600;7.310;2023-03-19T03:37:54;8.73;;;5.82;;
14052;SDS011;7101;51.600;7.310;2023-03-19T03:40:22;11.45;;;5.95;;
14052;SDS011;7101;51.600;7.310;2023-03-19T03:42:49;6.78;;;5.78;;
14052;SDS011;7101;51.600;7.310;2023-03-19T03:45:16;9.63;;;5.63;;
14052;SDS011;7101;51.600;7.310;2023-03-19T03:47:44;8.45;;;5.35;;
14052;SDS011;7101;51.600;7.310;2023-03-19T03:50:13;8.05;;;5.40;;
14052;SDS011;7101;51.600;7.310;2023-03-19T03:52:40;8.48;;;5.32;;
14052;SDS011;7101;51.600;7.310;2023-03-19T03:55:08;8.23;;;5.22;;
14052;SDS011;7101;51.600;7.310;2023-03-19T03:57:36;7.80;;;5.22;;
14052;SDS011;7101;51.600;7.310;2023-03-19T04:00:03;9.60;;;5.07;;
14052;SDS011;7101;51.600;7.310;2023-03-19T04:02:32;10.32;;;5.30;;
14052;SDS011;7101;51.600;7.310;2023-03-19T04:04:59;8.20;;;4.93;;
14052;SDS011;7101;51.600;7.310;2023-03-19T04:07:28;9.10;;;5.22;;
14052;SDS011;7101;51.600;7.310;2023-03-19T04:09:55;9.98;;;5.20;;
14052;SDS011;7101;51.600;7.310;2023-03-19T04:12:23;7.10;;;5.22;;
14052;SDS011;7101;51.600;7.310;2023-03-19T04:14:51;7.25;;;4.38;;
14052;SDS011;7101;51.600;7.310;2023-03-19T04:17:18;7.00;;;4.50;;
14052;SDS011;7101;51.600;7.310;2023-03-19T04:19:44;7.10;;;4.85;;
14052;SDS011;7101;51.600;7.310;2023-03-19T04:22:11;8.27;;;5.40;;
14052;SDS011;7101;51.600;7.310;2023-03-19T04:24:40;7.50;;;5.05;;
14052;SDS011;7101;51.600;7.310;2023-03-19T04:27:07;10.13;;;4.90;;
14052;SDS011;7101;51.600;7.310;2023-03-19T04:29:35;6.53;;;4.35;;
14052;SDS011;7101;51.600;7.310;2023-03-19T04:32:02;6.03;;;4.30;;
14052;SDS011;7101;51.600;7.310;2023-03-19T04:34:29;8.32;;;4.68;;
14052;SDS011;7101;51.600;7.310;2023-03-19T04:36:57;7.68;;;4.22;;
14052;SDS011;7101;51.600;7.310;2023-03-19T04:39:24;6.15;;;4.60;;
14052;SDS011;7101;51.600;7.310;2023-03-19T04:41:52;7.60;;;4.60;;
14052;SDS011;7101;51.600;7.310;2023-03-19T04:44:20;5.85;;;4.60;;
14052;SDS011;7101;51.600;7.310;2023-03-19T04:46:47;6.78;;;4.00;;
14052;SDS011;7101;51.600;7.310;2023-03-19T04:49:15;7.72;;;4.03;;
14052;SDS011;7101;51.600;7.310;2023-03-19T04:51:43;4.57;;;3.20;;
14052;SDS011;7101;51.600;7.310;2023-03-19T04:54:10;6.65;;;3.38;;
14052;SDS011;7101;51.600;7.310;2023-03-19T04:56:37;5.95;;;3.28;;
14052;SDS011;7101;51.600;7.310;2023-03-19T04:59:06;6.60;;;3.17;;
14052;SDS011;7101;51.600;7.310;2023-03-19T05:01:36;6.03;;;3.30;;
14052;SDS011;7101;51.600;7.310;2023-03-19T05:04:07;4.72;;;2.80;;
14052;SDS011;7101;51.600;7.310;2023-03-19T05:06:34;4.60;;;2.90;;
14052;SDS011;7101;51.600;7.310;2023-03-19T05:09:02;5.72;;;2.90;;
14052;SDS011;7101;51.600;7.310;2023-03-19T05:11:30;5.47;;;2.47;;
14052;SDS011;7101;51.600;7.310;2023-03-19T05:13:57;3.80;;;2.50;;
14052;SDS011;7101;51.600;7.310;2023-03-19T05:16:25;5.68;;;2.53;;
14052;SDS011;7101;51.600;7.310;2023-03-19T05:18:52;6.72;;;2.95;;
14052;SDS011;7101;51.600;7.310;2023-03-19T05:21:19;4.47;;;2.35;;
14052;SDS011;7101;51.600;7.310;2023-03-19T05:23:48;4.03;;;2.30;;
14052;SDS011;7101;51.600;7.310;2023-03-19T05:26:19;5.95;;;2.40;;
14052;SDS011;7101;51.600;7.310;2023-03-19T05:28:47;5.47;;;2.20;;
14052;SDS011;7101;51.600;7.310;2023-03-19T05:31:14;6.63;;;2.63;;
14052;SDS011;7101;51.600;7.310;2023-03-19T05:33:42;4.93;;;2.58;;
14052;SDS011;7101;51.600;7.310;2023-03-19T05:36:09;6.57;;;2.83;;
14052;SDS011;7101;51.600;7.310;2023-03-19T05:38:37;7.22;;;2.85;;
14052;SDS011;7101;51.600;7.310;2023-03-19T05:41:07;4.43;;;2.60;;
14052;SDS011;7101;51.600;7.310;2023-03-19T05:43:34;6.22;;;4.30;;
14052;SDS011;7101;51.600;7.310;2023-03-19T05:46:01;8.50;;;4.25;;
14052;SDS011;7101;51.600;7.310;2023-03-19T05:48:28;6.07;;;4.22;;
14052;SDS011;7101;51.600;7.310;2023-03-19T05:50:58;21.15;;;11.30;;
14052;SDS011;7101;51.600;7.310;2023-03-19T05:53:26;23.42;;;12.85;;
14052;SDS011;7101;51.600;7.310;2023-03-19T05:55:52;11.90;;;6.38;;
14052;SDS011;7101;51.600;7.310;2023-03-19T05:58:19;11.05;;;6.47;;
14052;SDS011;7101;51.600;7.310;2023-03-19T06:00:46;11.80;;;5.60;;
14052;SDS011;7101;51.600;7.310;2023-03-19T06:03:13;6.95;;;4.10;;
14052;SDS011;7101;51.600;7.310;2023-03-19T06:05:40;5.15;;;3.55;;
14052;SDS011;7101;51.600;7.310;2023-03-19T06:08:09;5.13;;;3.35;;
14052;SDS011;7101;51.600;7.310;2023-03-19T06:10:37;18.50;;;4.65;;
14052;SDS011;7101;51.600;7.310;2023-03-19T06:13:04;5.72;;;3.10;;
14052;SDS011;7101;51.600;7.310;2023-03-19T06:15:31;3.85;;;2.60;;
14052;SDS011;7101;51.600;7.310;2023-03-19T06:17:58;5.20;;;2.65;;
14052;SDS011;7101;51.600;7.310;2023-03-19T06:20:26;5.13;;;2.88;;
14052;SDS011;7101;51.600;7.310;2023-03-19T06:22:53;5.10;;;3.00;;
14052;SDS011;7101;51.600;7.310;2023-03-19T06:25:22;5.65;;;2.95;;
14052;SDS011;7101;51.600;7.310;2023-03-19T06:27:49;4.93;;;3.00;;
14052;SDS011;7101;51.600;7.310;2023-03-19T06:30:16;4.53;;;3.10;;
14052;SDS011;7101;51.600;7.310;2023-03-19T06:32:43;8.18;;;3.75;;
14052;SDS011;7101;51.600;7.310;2023-03-19T06:35:12;5.30;;;3.80;;
14052;SDS011;7101;51.600;7.310;2023-03-19T06:37:39;5.25;;;4.30;;
14052;SDS011;7101;51.600;7.310;2023-03-19T06:40:09;6.53;;;4.53;;
14052;SDS011;7101;51.600;7.310;2023-03-19T06:42:39;7.13;;;4.68;;
14052;SDS011;7101;51.600;7.310;2023-03-19T06:45:13;8.27;;;3.80;;
14052;SDS011;7101;51.600;7.310;2023-03-19T06:47:42;7.60;;;4.38;;
14052;SDS011;7101;51.600;7.310;2023-03-19T06:50:11;5.63;;;4.30;;
14052;SDS011;7101;51.600;7.310;2023-03-19T06:52:39;7.82;;;4.40;;
14052;SDS011;7101;51.600;7.310;2023-03-19T06:55:10;6.93;;;4.72;;
14052;SDS011;7101;51.600;7.310;2023-03-19T06:57:40;6.20;;;4.60;;
14052;SDS011;7101;51.600;7.310;2023-03-19T07:00:07;8.90;;;4.90;;
14052;SDS011;7101;51.600;7.310;2023-03-19T07:02:35;6.07;;;4.57;;
14052;SDS011;7101;51.600;7.310;2023-03-19T07:05:02;8.82;;;4.68;;
14052;SDS011;7101;51.600;7.310;2023-03-19T07:07:30;5.28;;;4.40;;
14052;SDS011;7101;51.600;7.310;2023-03-19T07:09:57;9.32;;;4.22;;
14052;SDS011;7101;51.600;7.310;2023-03-19T07:12:25;7.18;;;5.05;;
14052;SDS011;7101;51.600;7.310;2023-03-19T07:14:54;8.32;;;5.05;;
14052;SDS011;7101;51.600;7.310;2023-03-19T07:17:24;8.35;;;4.88;;
14052;SDS011;7101;51.600;7.310;2023-03-19T07:19:52;5.38;;;4.60;;
14052;SDS011;7101;51.600;7.310;2023-03-19T07:22:19;6.50;;;4.45;;
14052;SDS011;7101;51.600;7.310;2023-03-19T07:24:46;6.65;;;4.50;;
14052;SDS011;7101;51.600;7.310;2023-03-19T07:27:13;4.85;;;3.92;;
14052;SDS011;7101;51.600;7.310;2023-03-19T07:29:40;6.22;;;4.20;;
14052;SDS011;7101;51.600;7.310;2023-03-19T07:32:10;5.88;;;4.30;;
14052;SDS011;7101;51.600;7.310;2023-03-19T07:34:37;9.23;;;4.35;;
14052;SDS011;7101;51.600;7.310;2023-03-19T07:37:04;4.80;;;3.53;;
14052;SDS011;7101;51.600;7.310;2023-03-19T07:39:32;5.82;;;3.80;;
14052;SDS011;7101;51.600;7.310;2023-03-19T07:41:59;5.72;;;3.95;;
14052;SDS011;7101;51.600;7.310;2023-03-19T07:44:26;5.57;;;4.15;;
14052;SDS011;7101;51.600;7.310;2023-03-19T07:46:53;6.25;;;4.05;;
14052;SDS011;7101;51.600;7.310;2023-03-19T07:49:22;5.85;;;3.97;;
14052;SDS011;7101;51.600;7.310;2023-03-19T07:51:50;7.55;;;4.45;;
14052;SDS011;7101;51.600;7.310;2023-03-19T07:54:17;5.85;;;3.95;;
14052;SDS011;7101;51.600;7.310;2023-03-19T07:56:45;7.05;;;4.30;;
14052;SDS011;7101;51.600;7.310;2023-03-19T07:59:13;6.63;;;4.43;;
14052;SDS011;7101;51.600;7.310;2023-03-19T08:01:41;4.75;;;3.70;;
14052;SDS011;7101;51.600;7.310;2023-03-19T08:04:09;6.07;;;3.80;;
14052;SDS011;7101;51.600;7.310;2023-03-19T08:06:41;5.78;;;4.00;;
14052;SDS011;7101;51.600;7.310;2023-03-19T08:09:11;5.07;;;3.75;;
14052;SDS011;7101;51.600;7.310;2023-03-19T08:11:41;6.80;;;3.97;;
14052;SDS011;7101;51.600;7.310;2023-03-19T08:14:08;7.15;;;3.80;;
14052;SDS011;7101;51.600;7.310;2023-03-19T08:16:36;8.65;;;4.18;;
14052;SDS011;7101;51.600;7.310;2023-03-19T08:19:03;6.13;;;3.85;;
14052;SDS011;7101;51.600;7.310;2023-03-19T08:21:30;4.63;;;3.60;;
14052;SDS011;7101;51.600;7.310;2023-03-19T08:23:59;5.68;;;3.78;;
14052;SDS011;7101;51.600;7.310;2023-03-19T08:26:26;5.28;;;3.55;;
14052;SDS011;7101;51.600;7.310;2023-03-19T08:28:53;6.47;;;3.60;;
14052;SDS011;7101;51.600;7.310;2023-03-19T08:31:20;5.43;;;3.33;;
14052;SDS011;7101;51.600;7.310;2023-03-19T08:33:47;5.22;;;3.25;;
14052;SDS011;7101;51.600;7.310;2023-03-19T08:36:17;5.43;;;3.38;;
14052;SDS011;7101;51.600;7.310;2023-03-19T08:38:45;4.35;;;3.42;;
14052;SDS011;7101;51.600;7.310;2023-03-19T08:41:13;4.95;;;3.28;;
14052;SDS011;7101;51.600;7.310;2023-03-19T08:43:42;4.10;;;3.40;;
14052;SDS011;7101;51.600;7.310;2023-03-19T08:46:10;4.93;;;3.28;;
14052;SDS011;7101;51.600;7.310;2023-03-19T08:48:37;4.38;;;3.00;;
14052;SDS011;7101;51.600;7.310;2023-03-19T08:51:04;4.68;;;3.35;;
14052;SDS011;7101;51.600;7.310;2023-03-19T08:53:35;5.13;;;3.75;;
14052;SDS011;7101;51.600;7.310;2023-03-19T08:56:03;5.97;;;3.40;;
14052;SDS011;7101;51.600;7.310;2023-03-19T08:58:34;5.60;;;3.75;;
14052;SDS011;7101;51.600;7.310;2023-03-19T09:01:01;5.32;;;3.47;;
14052;SDS011;7101;51.600;7.310;2023-03-19T09:03:29;4.00;;;3.60;;
14052;SDS011;7101;51.600;7.310;2023-03-19T09:05:57;5.50;;;3.90;;
14052;SDS011;7101;51.600;7.310;2023-03-19T09:08:26;6.53;;;4.13;;
14052;SDS011;7101;51.600;7.310;2023-03-19T09:10:55;4.93;;;4.07;;
14052;SDS011;7101;51.600;7.310;2023-03-19T09:13:22;5.10;;;4.00;;
14052;SDS011;7101;51.600;7.310;2023-03-19T09:15:51;6.40;;;4.15;;
14052;SDS011;7101;51.600;7.310;2023-03-19T09:18:19;5.13;;;4.38;;
14052;SDS011;7101;51.600;7.310;2023-03-19T09:20:48;5.30;;;4.10;;
14052;SDS011;7101;51.600;7.310;2023-03-19T09:23:15;5.00;;;3.95;;
14052;SDS011;7101;51.600;7.310;2023-03-19T09:25:43;5.50;;;4.03;;
14052;SDS011;7101;51.600;7.310;2023-03-19T09:28:11;5.25;;;3.97;;
14052;SDS011;7101;51.600;7.310;2023-03-19T09:30:38;4.43;;;3.40;;
14052;SDS011;7101;51.600;7.310;2023-03-19T09:33:06;5.97;;;4.00;;
14052;SDS011;7101;51.600;7.310;2023-03-19T09:35:34;5.10;;;4.10;;
14052;SDS011;7101;51.600;7.310;2023-03-19T09:38:03;7.15;;;4.32;;
14052;SDS011;7101;51.600;7.310;2023-03-19T09:40:34;6.85;;;4.20;;
14052;SDS011;7101;51.600;7.310;2023-03-19T09:43:06;4.10;;;3.70;;
14052;SDS011;7101;51.600;7.310;2023-03-19T09:45:47;4.47;;;3.45;;
14052;SDS011;7101;51.600;7.310;2023-03-19T09:48:20;4.60;;;3.70;;
14052;SDS011;7101;51.600;7.310;2023-03-19T09:51:00;4.72;;;4.07;;
14052;SDS011;7101;51.600;7.310;2023-03-19T09:53:35;5.70;;;3.90;;
14052;SDS011;7101;51.600;7.310;2023-03-19T09:56:13;4.78;;;4.13;;
14052;SDS011;7101;51.600;7.310;2023-03-19T09:58:43;4.78;;;4.28;;
14052;SDS011;7101;51.600;7.310;2023-03-19T10:01:16;4.15;;;3.40;;
14052;SDS011;7101;51.600;7.310;2023-03-19T10:03:56;3.97;;;3.58;;
14052;SDS011;7101;51.600;7.310;2023-03-19T10:06:36;4.32;;;3.17;;
14052;SDS011;7101;51.600;7.310;2023-03-19T10:09:16;3.50;;;3.20;;
14052;SDS011;7101;51.600;7.310;2023-03-19T10:12:01;4.05;;;3.08;;
14052;SDS011;7101;51.600;7.310;2023-03-19T10:14:50;4.10;;;3.30;;
14052;SDS011;7101;51.600;7.310;2023-03-19T10:17:30;4.68;;;3.40;;
14052;SDS011;7101;51.600;7.310;2023-03-19T10:20:02;3.72;;;3.22;;
14052;SDS011;7101;51.600;7.310;2023-03-19T10:22:34;4.43;;;3.50;;
14052;SDS011;7101;51.600;7.310;2023-03-19T10:25:07;3.25;;;2.95;;
14052;SDS011;7101;51.600;7.310;2023-03-19T10:27:39;4.63;;;3.05;;
14052;SDS011;7101;51.600;7.310;2023-03-19T10:30:11;4.43;;;3.05;;
14052;SDS011;7101;51.600;7.310;2023-03-19T10:32:42;3.05;;;2.70;;
14052;SDS011;7101;51.600;7.310;2023-03-19T10:35:17;3.38;;;2.70;;
14052;SDS011;7101;51.600;7.310;2023-03-19T10:37:46;4.60;;;3.00;;
14052;SDS011;7101;51.600;7.310;2023-03-19T10:40:18;3.60;;;2.90;;
14052;SDS011;7101;51.600;7.310;2023-03-19T10:42:54;3.47;;;2.97;;
14052;SDS011;7101;51.600;7.310;2023-03-19T10:45:31;3.70;;;2.88;;
14052;SDS011;7101;51.600;7.310;2023-03-19T10:48:00;5.22;;;2.97;;
14052;SDS011;7101;51.600;7.310;2023-03-19T10:50:31;4.93;;;2.92;;
14052;SDS011;7101;51.600;7.310;2023-03-19T10:53:06;3.53;;;2.83;;
14052;SDS011;7101;51.600;7.310;2023-03-19T10:55:49;2.80;;;2.53;;
14052;SDS011;7101;51.600;7.310;2023-03-19T10:58:21;4.35;;;2.85;;
14052;SDS011;7101;51.600;7.310;2023-03-19T11:00:54;4.03;;;2.80;;
14052;SDS011;7101;51.600;7.310;2023-03-19T11:03:30;2.58;;;2.30;;
14052;SDS011;7101;51.600;7.310;2023-03-19T11:06:04;2.60;;;2.40;;
14052;SDS011;7101;51.600;7.310;2023-03-19T11:08:33;3.60;;;2.47;;
14052;SDS011;7101;51.600;7.310;2023-03-19T11:11:04;3.65;;;2.35;;
14052;SDS011;7101;51.600;7.310;2023-03-19T11:13:32;3.75;;;2.75;;
14052;SDS011;7101;51.600;7.310;2023-03-19T11:16:00;3.40;;;2.63;;
14052;SDS011;7101;51.600;7.310;2023-03-19T11:18:29;2.75;;;2.10;;
14052;SDS011;7101;51.600;7.310;2023-03-19T11:21:06;3.97;;;2.35;;
14052;SDS011;7101;51.600;7.310;2023-03-19T11:23:50;3.40;;;2.10;;
14052;SDS011;7101;51.600;7.310;2023-03-19T11:26:18;3.25;;;2.47;;
14052;SDS011;7101;51.600;7.310;2023-03-19T11:28:49;4.18;;;2.10;;
14052;SDS011;7101;51.600;7.310;2023-03-19T11:31:18;4.72;;;2.28;;
14052;SDS011;7101;51.600;7.310;2023-03-19T11:33:55;2.70;;;2.30;;
14052;SDS011;7101;51.600;7.310;2023-03-19T11:36:32;3.35;;;2.20;;
14052;SDS011;7101;51.600;7.310;2023-03-19T11:39:12;2.10;;;1.90;;
14052;SDS011;7101;51.600;7.310;2023-03-19T11:41:53;3.03;;;2.15;;
14052;SDS011;7101;51.600;7.310;2023-03-19T11:44:33;3.13;;;2.28;;
14052;SDS011;7101;51.600;7.310;2023-03-19T11:47:09;2.60;;;2.40;;
14052;SDS011;7101;51.600;7.310;2023-03-19T11:50:01;2.65;;;2.40;;
14052;SDS011;7101;51.600;7.310;2023-03-19T11:52:48;3.03;;;2.58;;
14052;SDS011;7101;51.600;7.310;2023-03-19T11:55:27;3.28;;;2.20;;
14052;SDS011;7101;51.600;7.310;2023-03-19T12:01:01;4.88;;;2.50;;
14052;SDS011;7101;51.600;7.310;2023-03-19T12:06:29;2.40;;;2.20;;
14052;SDS011;7101;51.600;7.310;2023-03-19T12:09:10;2.72;;;2.25;;
14052;SDS011;7101;51.600;7.310;2023-03-19T12:11:46;2.85;;;2.50;;
14052;SDS011;7101;51.600;7.310;2023-03-19T12:14:28;15.27;;;3.60;;
14052;SDS011;7101;51.600;7.310;2023-03-19T12:19:57;6.80;;;3.20;;
14052;SDS011;7101;51.600;7.310;2023-03-19T12:22:41;7.65;;;2.80;;
14052;SDS011;7101;51.600;7.310;2023-03-19T12:25:29;43.13;;;5.50;;
14052;SDS011;7101;51.600;7.310;2023-03-19T12:28:08;5.93;;;2.60;;
14052;SDS011;7101;51.600;7.310;2023-03-19T12:30:40;7.63;;;4.00;;
14052;SDS011;7101;51.600;7.310;2023-03-19T12:33:15;13.38;;;9.48;;
14052;SDS011;7101;51.600;7.310;2023-03-19T12:35:53;5.47;;;3.95;;
14052;SDS011;7101;51.600;7.310;2023-03-19T12:38:23;5.60;;;3.75;;
14052;SDS011;7101;51.600;7.310;2023-03-19T12:40:55;5.70;;;3.53;;
14052;SDS011;7101;51.600;7.310;2023-03-19T12:43:27;15.23;;;7.68;;
14052;SDS011;7101;51.600;7.310;2023-03-19T12:46:02;13.70;;;6.88;;
14052;SDS011;7101;51.600;7.310;2023-03-19T12:48:35;7.93;;;4.13;;
14052;SDS011;7101;51.600;7.310;2023-03-19T12:51:08;8.32;;;5.40;;
14052;SDS011;7101;51.600;7.310;2023-03-19T12:53:40;12.52;;;7.72;;
14052;SDS011;7101;51.600;7.310;2023-03-19T12:56:13;6.75;;;3.70;;
14052;SDS011;7101;51.600;7.310;2023-03-19T12:58:50;5.05;;;3.45;;
14052;SDS011;7101;51.600;7.310;2023-03-19T13:01:22;3.25;;;2.35;;
14052;SDS011;7101;51.600;7.310;2023-03-19T13:03:54;2.80;;;2.35;;
14052;SDS011;7101;51.600;7.310;2023-03-19T13:06:27;3.33;;;2.60;;
14052;SDS011;7101;51.600;7.310;2023-03-19T13:09:00;3.33;;;3.03;;
14052;SDS011;7101;51.600;7.310;2023-03-19T13:11:35;4.15;;;2.95;;
14052;SDS011;7101;51.600;7.310;2023-03-19T13:14:12;4.00;;;3.58;;
14052;SDS011;7101;51.600;7.310;2023-03-19T13:16:42;3.28;;;2.80;;
14052;SDS011;7101;51.600;7.310;2023-03-19T13:19:20;6.50;;;5.22;;
14052;SDS011;7101;51.600;7.310;2023-03-19T13:21:54;4.40;;;3.60;;
14052;SDS011;7101;51.600;7.310;2023-03-19T13:24:25;4.22;;;3.40;;
14052;SDS011;7101;51.600;7.310;2023-03-19T13:26:57;3.92;;;2.92;;
14052;SDS011;7101;51.600;7.310;2023-03-19T13:29:26;4.28;;;3.20;;
14052;SDS011;7101;51.600;7.310;2023-03-19T13:31:58;4.35;;;2.70;;
14052;SDS011;7101;51.600;7.310;2023-03-19T13:34:27;5.35;;;3.05;;
14052;SDS011;7101;51.600;7.310;2023-03-19T13:37:03;3.65;;;3.10;;
14052;SDS011;7101;51.600;7.310;2023-03-19T13:39:35;6.75;;;3.92;;
14052;SDS011;7101;51.600;7.310;2023-03-19T13:45:02;4.65;;;4.05;;
14052;SDS011;7101;51.600;7.310;2023-03-19T13:47:51;4.40;;;4.00;;
14052;SDS011;7101;51.600;7.310;2023-03-19T13:50:23;4.75;;;4.05;;
14052;SDS011;7101;51.600;7.310;2023-03-19T13:53:17;6.07;;;4.88;;
14052;SDS011;7101;51.600;7.310;2023-03-19T13:55:50;5.43;;;4.93;;
14052;SDS011;7101;51.600;7.310;2023-03-19T13:58:22;6.03;;;4.95;;
14052;SDS011;7101;51.600;7.310;2023-03-19T14:01:08;8.15;;;5.18;;
14052;SDS011;7101;51.600;7.310;2023-03-19T14:03:38;7.07;;;5.60;;
14052;SDS011;7101;51.600;7.310;2023-03-19T14:06:31;6.53;;;5.22;;
14052;SDS011;7101;51.600;7.310;2023-03-19T14:09:01;6.15;;;5.53;;
14052;SDS011;7101;51.600;7.310;2023-03-19T14:11:31;6.85;;;5.65;;
14052;SDS011;7101;51.600;7.310;2023-03-19T14:14:02;7.60;;;4.70;;
14052;SDS011;7101;51.600;7.310;2023-03-19T14:16:37;6.38;;;4.70;;
14052;SDS011;7101;51.600;7.310;2023-03-19T14:19:10;4.90;;;3.65;;
14052;SDS011;7101;51.600;7.310;2023-03-19T14:21:44;5.43;;;4.00;;
14052;SDS011;7101;51.600;7.310;2023-03-19T14:24:34;4.07;;;3.40;;
14052;SDS011;7101;51.600;7.310;2023-03-19T14:27:12;5.15;;;3.83;;
14052;SDS011;7101;51.600;7.310;2023-03-19T14:29:42;4.20;;;3.35;;
14052;SDS011;7101;51.600;7.310;2023-03-19T14:32:14;5.35;;;3.63;;
14052;SDS011;7101;51.600;7.310;2023-03-19T14:34:44;4.07;;;3.40;;
14052;SDS011;7101;51.600;7.310;2023-03-19T14:37:18;5.15;;;3.78;;
14052;SDS011;7101;51.600;7.310;2023-03-19T14:39:49;4.22;;;3.25;;
14052;SDS011;7101;51.600;7.310;2023-03-19T14:42:20;3.90;;;3.25;;
14052;SDS011;7101;51.600;7.310;2023-03-19T14:45:11;4.35;;;3.22;;
14052;SDS011;7101;51.600;7.310;2023-03-19T14:48:02;3.63;;;2.70;;
14052;SDS011;7101;51.600;7.310;2023-03-19T14:50:40;3.50;;;2.47;;
14052;SDS011;7101;51.600;7.310;2023-03-19T14:53:40;4.68;;;2.10;;
14052;SDS011;7101;51.600;7.310;2023-03-19T14:56:12;3.63;;;2.10;;
14052;SDS011;7101;51.600;7.310;2023-03-19T14:58:50;2.80;;;2.10;;
14052;SDS011;7101;51.600;7.310;2023-03-19T15:01:20;3.25;;;2.20;;
14052;SDS011;7101;51.600;7.310;2023-03-19T15:03:52;3.67;;;2.40;;
14052;SDS011;7101;51.600;7.310;2023-03-19T15:06:21;3.80;;;3.03;;
14052;SDS011;7101;51.600;7.310;2023-03-19T15:08:50;3.08;;;2.20;;
14052;SDS011;7101;51.600;7.310;2023-03-19T15:11:24;4.63;;;2.50;;
14052;SDS011;7101;51.600;7.310;2023-03-19T15:14:10;3.90;;;2.63;;
14052;SDS011;7101;51.600;7.310;2023-03-19T15:16:52;4.63;;;3.08;;
14052;SDS011;7101;51.600;7.310;2023-03-19T15:19:27;3.65;;;2.80;;
14052;SDS011;7101;51.600;7.310;2023-03-19T15:22:03;4.22;;;2.55;;
14052;SDS011;7101;51.600;7.310;2023-03-19T15:24:31;5.50;;;2.80;;
14052;SDS011;7101;51.600;7.310;2023-03-19T15:27:00;3.40;;;2.90;;
14052;SDS011;7101;51.600;7.310;2023-03-19T15:29:32;4.25;;;3.30;;
14052;SDS011;7101;51.600;7.310;2023-03-19T15:32:00;3.80;;;2.92;;